Time;durP1;ratioP1;P1;durP2;ratioP2;P2;SDS_P1;SDS_P2;PMS_P1;PMS_P2;Temp;Humidity;BMP_temperature;BMP_pressure;BME280_temperature;BME280_humidity;BME280_pressure;Samples;Min_cycle;Max_cycle;Signal;HPM_P1;HPM_P2
2022/07/15 00:00:42;;;;;;;5.10;1.00;;;;;;;14.30;100.00;98652.00;5089923;28;20093;-52
2022/07/15 00:03:09;;;;;;;1.92;0.90;;;;;;;14.24;100.00;98668.16;5090042;28;20554;-52
2022/07/15 00:05:35;;;;;;;5.20;0.90;;;;;;;14.02;100.00;98721.81;5089852;28;20059;-55
2022/07/15 00:08:02;;;;;;;6.60;1.70;;;;;;;14.12;100.00;98729.25;5089959;28;20426;-54
2022/07/15 00:10:29;;;;;;;4.78;1.05;;;;;;;14.12;100.00;98737.53;5089683;28;20411;-54
2022/07/15 00:12:58;;;;;;;9.00;1.65;;;;;;;14.06;100.00;98774.94;5089747;28;20052;-52
2022/07/15 00:15:28;;;;;;;4.28;1.20;;;;;;;14.08;100.00;98822.19;5089681;28;20507;-54
2022/07/15 00:17:55;;;;;;;1.85;1.30;;;;;;;14.05;100.00;98845.81;5089900;28;20491;-52
2022/07/15 00:20:22;;;;;;;4.90;1.00;;;;;;;14.09;100.00;98846.63;5089661;28;20052;-53
2022/07/15 00:22:49;;;;;;;3.67;1.10;;;;;;;14.00;100.00;98879.31;5089765;28;20066;-54
2022/07/15 00:25:17;;;;;;;3.65;0.98;;;;;;;14.06;100.00;98897.03;5089862;28;20055;-53
2022/07/15 00:27:54;;;;;;;7.25;1.23;;;;;;;14.04;100.00;98857.25;5089620;28;20071;-53
2022/07/15 00:30:21;;;;;;;4.40;1.10;;;;;;;14.02;100.00;98878.91;5089585;28;20052;-52
2022/07/15 00:32:48;;;;;;;3.33;0.90;;;;;;;14.05;100.00;98881.66;5089456;28;20064;-53
2022/07/15 00:35:14;;;;;;;3.80;1.25;;;;;;;14.08;100.00;98891.13;5089695;28;20052;-52
2022/07/15 00:37:41;;;;;;;3.78;1.00;;;;;;;14.06;100.00;98893.47;5089367;28;20432;-52
2022/07/15 00:40:08;;;;;;;4.88;1.00;;;;;;;14.05;100.00;98911.97;5089521;28;20051;-54
2022/07/15 00:42:44;;;;;;;6.50;1.60;;;;;;;14.01;100.00;98919.47;5089264;28;20070;-52
2022/07/15 00:45:10;;;;;;;2.92;1.00;;;;;;;14.01;100.00;98926.94;5089550;28;20052;-53
2022/07/15 00:47:37;;;;;;;4.03;1.20;;;;;;;14.09;100.00;98929.31;5089178;28;20139;-55
2022/07/15 00:50:04;;;;;;;3.33;1.02;;;;;;;14.15;100.00;98876.53;5089217;28;20059;-54
2022/07/15 00:52:31;;;;;;;5.90;1.20;;;;;;;14.10;100.00;98858.44;5089370;28;20048;-51
2022/07/15 00:55:00;;;;;;;3.88;0.88;;;;;;;14.16;100.00;98878.09;5089122;28;20403;-55
2022/07/15 00:57:27;;;;;;;4.60;0.80;;;;;;;14.20;100.00;98870.63;5089391;28;20109;-53
2022/07/15 00:59:56;;;;;;;7.63;1.58;;;;;;;14.19;100.00;98919.44;5089129;28;20050;-52
2022/07/15 01:02:23;;;;;;;6.80;1.00;;;;;;;14.27;100.00;98915.50;5089303;28;20423;-54
2022/07/15 01:04:50;;;;;;;6.68;0.93;;;;;;;14.18;100.00;98944.66;5088948;28;20499;-55
2022/07/15 01:07:17;;;;;;;4.18;1.40;;;;;;;14.23;100.00;98930.47;5091958;28;20407;-52
2022/07/15 01:09:43;;;;;;;4.18;1.10;;;;;;;14.24;100.00;98896.22;5092316;28;20052;-53
2022/07/15 01:12:09;;;;;;;7.85;1.92;;;;;;;14.19;100.00;98910.38;5092377;28;20101;-52
2022/07/15 01:14:36;;;;;;;3.80;0.93;;;;;;;14.13;100.00;98899.78;5092362;28;20090;-52
2022/07/15 01:17:09;;;;;;;4.20;1.17;;;;;;;14.09;100.00;98921.06;5092398;28;20048;-51
2022/07/15 01:19:35;;;;;;;4.55;1.23;;;;;;;14.17;100.00;98923.81;5092709;28;20048;-52
2022/07/15 01:22:02;;;;;;;5.85;1.50;;;;;;;14.21;100.00;98883.22;5092606;28;20503;-51
2022/07/15 01:24:28;;;;;;;4.68;1.13;;;;;;;14.17;100.00;98885.22;5092944;28;20056;-51
2022/07/15 01:26:55;;;;;;;5.38;1.70;;;;;;;14.17;100.00;98885.22;5092680;28;20159;-54
2022/07/15 01:29:21;;;;;;;4.13;1.70;;;;;;;14.19;100.00;98858.78;5092927;28;20564;-56
2022/07/15 01:31:47;;;;;;;6.40;1.08;;;;;;;14.24;100.00;98866.69;5092110;28;20096;-54
2022/07/15 01:34:13;;;;;;;2.03;0.88;;;;;;;14.21;100.00;98908.81;5092447;28;20055;-55
2022/07/15 01:36:40;;;;;;;3.95;1.15;;;;;;;14.19;100.00;98916.69;5092171;28;20464;-55
2022/07/15 01:39:07;;;;;;;4.78;1.15;;;;;;;14.22;100.00;98893.06;5092110;28;20419;-53
2022/07/15 01:41:33;;;;;;;4.97;1.33;;;;;;;14.23;100.00;98889.13;5092033;28;20054;-54
2022/07/15 01:43:59;;;;;;;4.82;1.10;;;;;;;14.09;100.00;98898.19;5092344;28;20048;-54
2022/07/15 01:46:25;;;;;;;5.97;1.50;;;;;;;14.17;100.00;98915.53;5092269;28;20424;-51
2022/07/15 01:51:36;;;;;;;;;;;;;;;14.20;100.00;98892.69;5092814;28;20083;-54
2022/07/15 01:54:02;;;;;;;8.77;2.17;;;;;;;14.13;100.00;98915.53;5091951;28;19924;-53
2022/07/15 01:56:29;;;;;;;5.10;1.50;;;;;;;14.18;100.00;98931.66;5091808;28;20138;-55
2022/07/15 01:58:55;;;;;;;5.07;1.55;;;;;;;14.16;100.00;98902.91;5091663;28;20048;-53
2022/07/15 02:01:22;;;;;;;5.63;1.02;;;;;;;14.22;100.00;98877.31;5091896;28;20142;-53
2022/07/15 02:03:48;;;;;;;3.38;1.30;;;;;;;14.09;100.00;98860.41;5091921;28;20064;-54
2022/07/15 02:06:14;;;;;;;5.47;1.17;;;;;;;14.22;100.00;98857.22;5091981;28;20052;-53
2022/07/15 02:08:40;;;;;;;5.35;1.58;;;;;;;14.17;100.00;98843.84;5091704;28;20059;-51
2022/07/15 02:11:07;;;;;;;5.43;1.20;;;;;;;14.18;100.00;98867.47;5091680;28;20140;-56
2022/07/15 02:13:34;;;;;;;6.35;1.50;;;;;;;14.18;100.00;98860.00;5092041;28;20414;-53
2022/07/15 02:16:00;;;;;;;6.43;1.27;;;;;;;14.11;100.00;98862.75;5091415;28;20534;-52
2022/07/15 02:18:26;;;;;;;6.70;1.05;;;;;;;14.18;100.00;98861.97;5090627;28;20044;-55
2022/07/15 02:20:54;;;;;;;4.95;1.50;;;;;;;14.11;100.00;98877.31;5091342;28;20058;-55
2022/07/15 02:23:20;;;;;;;3.50;1.13;;;;;;;14.15;100.00;98882.06;5091578;28;20048;-51
2022/07/15 02:25:46;;;;;;;2.55;1.00;;;;;;;14.17;100.00;98879.69;5091301;28;20052;-50
2022/07/15 02:28:13;;;;;;;2.40;1.05;;;;;;;14.15;100.00;98858.03;5091413;28;20055;-51
2022/07/15 02:30:41;;;;;;;8.38;1.52;;;;;;;14.20;100.00;98857.63;5091199;28;20044;-52
2022/07/15 02:33:08;;;;;;;4.32;1.08;;;;;;;14.18;100.00;98898.59;5091085;28;20064;-51
2022/07/15 02:35:35;;;;;;;7.13;1.02;;;;;;;14.18;100.00;98903.31;5091167;28;20047;-52
2022/07/15 02:38:02;;;;;;;4.20;1.08;;;;;;;14.21;100.00;98908.81;5091081;28;20521;-53
2022/07/15 02:40:29;;;;;;;8.38;1.25;;;;;;;14.22;100.00;98877.31;5091316;28;20093;-54
2022/07/15 02:42:57;;;;;;;6.63;1.33;;;;;;;14.22;100.00;98868.25;5091091;28;20124;-51
2022/07/15 02:45:25;;;;;;;4.03;1.15;;;;;;;14.15;100.00;98913.16;5091306;28;20054;-54
2022/07/15 02:47:52;;;;;;;3.40;0.80;;;;;;;14.22;100.00;98937.19;5090896;28;20534;-51
2022/07/15 02:50:20;;;;;;;3.05;0.98;;;;;;;14.27;100.00;98918.28;5091329;28;20048;-53
2022/07/15 02:52:46;;;;;;;2.97;1.10;;;;;;;14.23;100.00;98914.75;5090759;28;20480;-55
2022/07/15 02:55:14;;;;;;;4.00;1.50;;;;;;;14.18;100.00;98934.41;5091093;28;20085;-56
2022/07/15 02:57:41;;;;;;;9.70;1.08;;;;;;;14.23;100.00;98931.28;5090830;28;20078;-52
2022/07/15 03:00:11;;;;;;;3.92;1.13;;;;;;;14.29;100.00;98945.44;5090678;28;20075;-54
2022/07/15 03:02:37;;;;;;;2.58;1.00;;;;;;;14.28;100.00;98946.63;5090989;28;20062;-54
2022/07/15 03:05:05;;;;;;;3.55;1.27;;;;;;;14.32;100.00;98934.41;5090577;28;20052;-55
2022/07/15 03:07:31;;;;;;;5.45;1.13;;;;;;;14.32;100.00;98948.19;5090952;28;20052;-55
2022/07/15 03:09:57;;;;;;;2.85;1.10;;;;;;;14.36;100.00;98951.75;5090692;28;20094;-52
2022/07/15 03:12:24;;;;;;;2.20;1.00;;;;;;;14.47;100.00;98940.69;5090579;28;20058;-52
2022/07/15 03:14:50;;;;;;;5.20;1.92;;;;;;;14.47;100.00;98923.38;5090546;28;20047;-56
2022/07/15 03:17:17;;;;;;;2.80;1.05;;;;;;;14.52;100.00;98942.28;5090945;28;20048;-53
2022/07/15 03:19:43;;;;;;;5.00;1.10;;;;;;;14.59;100.00;98920.22;5090430;28;20052;-54
2022/07/15 03:22:10;;;;;;;1.80;0.73;;;;;;;14.62;100.00;98878.03;5090536;28;20093;-55
2022/07/15 03:24:36;;;;;;;7.25;1.20;;;;;;;14.55;100.00;98900.13;5090408;28;20054;-54
2022/07/15 03:27:03;;;;;;;4.40;1.08;;;;;;;14.55;100.00;98887.13;5090539;28;20060;-53
2022/07/15 03:29:29;;;;;;;6.03;1.17;;;;;;;14.72;100.00;98846.84;5090051;28;20135;-51
2022/07/15 03:31:56;;;;;;;5.25;1.48;;;;;;;14.74;100.00;98827.16;5090141;28;20059;-55
2022/07/15 03:34:25;;;;;;;3.08;1.00;;;;;;;14.75;100.00;98814.91;5090211;28;20048;-56
2022/07/15 03:36:51;;;;;;;3.83;1.00;;;;;;;14.76;100.00;98795.22;5090205;28;20118;-55
2022/07/15 03:39:18;;;;;;;3.85;1.58;;;;;;;14.79;100.00;98794.41;5090517;28;20441;-55
2022/07/15 03:41:45;;;;;;;5.15;1.10;;;;;;;14.70;100.00;98773.97;5089992;28;20131;-55
2022/07/15 03:44:12;;;;;;;3.20;1.23;;;;;;;14.86;100.00;98779.81;5090403;28;20044;-54
2022/07/15 03:46:38;;;;;;;4.72;1.00;;;;;;;14.95;100.00;98755.28;5089970;28;20094;-56
2022/07/15 03:49:05;;;;;;;15.23;1.02;;;;;;;14.89;100.00;98797.50;5090255;28;20693;-54
2022/07/15 03:51:32;;;;;;;4.80;1.38;;;;;;;14.96;100.00;98784.47;5089974;28;20047;-55
2022/07/15 03:53:59;;;;;;;2.70;1.40;;;;;;;15.01;100.00;98780.50;5089943;28;20056;-53
2022/07/15 03:56:26;;;;;;;4.25;1.10;;;;;;;14.96;100.00;98790.00;5089948;28;20130;-53
2022/07/15 03:58:52;;;;;;;4.93;1.40;;;;;;;15.13;100.00;98735.03;5090025;28;20054;-55
2022/07/15 04:01:20;;;;;;;6.85;1.40;;;;;;;15.21;100.00;98731.06;5089937;28;20052;-54
2022/07/15 04:03:47;;;;;;;5.40;1.38;;;;;;;15.12;100.00;98774.91;5089730;28;20055;-52
2022/07/15 04:06:14;;;;;;;5.32;1.30;;;;;;;15.23;100.00;98768.13;5090129;28;20051;-51
2022/07/15 04:08:40;;;;;;;2.90;1.08;;;;;;;15.28;100.00;98764.13;5089711;28;20061;-51
2022/07/15 04:11:06;;;;;;;4.22;1.40;;;;;;;15.38;100.00;98762.47;5090073;28;20567;-51
2022/07/15 04:13:33;;;;;;;3.88;1.00;;;;;;;15.24;100.00;98755.88;5089655;28;20048;-52
2022/07/15 04:16:00;;;;;;;3.60;1.00;;;;;;;15.43;100.00;98795.97;5089968;28;20083;-52
2022/07/15 04:18:26;;;;;;;5.90;1.50;;;;;;;15.41;100.00;98748.63;5089785;28;20051;-54
2022/07/15 04:20:53;;;;;;;7.20;1.63;;;;;;;15.45;100.00;98716.25;5089627;28;20499;-55
2022/07/15 04:23:19;;;;;;;3.20;1.00;;;;;;;15.52;100.00;98624.22;5089956;28;20048;-56
2022/07/15 04:25:45;;;;;;;5.88;1.63;;;;;;;15.37;100.00;98629.13;5089719;28;20109;-51
2022/07/15 04:28:11;;;;;;;7.40;1.30;;;;;;;15.41;100.00;98629.09;5089735;28;20054;-51
2022/07/15 04:30:38;;;;;;;4.55;1.45;;;;;;;15.40;100.00;98602.66;5089588;28;20048;-54
2022/07/15 04:33:05;;;;;;;5.88;1.27;;;;;;;15.43;100.00;98552.91;5089957;28;20051;-52
2022/07/15 04:35:31;;;;;;;7.95;1.85;;;;;;;15.39;100.00;98648.81;5089376;28;20059;-51
2022/07/15 04:37:57;;;;;;;6.07;1.10;;;;;;;15.39;100.00;98643.28;5089263;28;20084;-51
2022/07/15 04:40:23;;;;;;;5.43;1.13;;;;;;;15.34;100.00;98643.75;5089299;28;20219;-52
2022/07/15 04:42:50;;;;;;;6.07;1.50;;;;;;;15.39;100.00;98670.91;5093177;28;20048;-51
2022/07/15 04:45:16;;;;;;;5.97;1.23;;;;;;;15.42;100.00;98655.50;5092816;28;20062;-52
2022/07/15 04:47:43;;;;;;;5.78;1.00;;;;;;;15.38;100.00;98666.59;5092775;28;20051;-52
2022/07/15 04:52:53;;;;;;;;;;;;;;;15.16;100.00;98754.38;5093098;28;20427;-52
2022/07/15 04:55:20;;;;;;;6.05;1.25;;;;;;;15.28;100.00;98811.84;5092731;28;19924;-53
2022/07/15 04:57:46;;;;;;;3.97;1.48;;;;;;;15.32;100.00;98852.47;5092701;28;20083;-55
2022/07/15 05:00:12;;;;;;;4.60;1.70;;;;;;;15.32;100.00;98860.75;5092657;28;20155;-53
2022/07/15 05:02:39;;;;;;;6.15;1.52;;;;;;;15.32;100.00;98855.25;5092450;28;20416;-51
2022/07/15 05:05:07;;;;;;;5.75;1.90;;;;;;;15.31;100.00;98879.31;5092933;28;20066;-51
2022/07/15 05:07:33;;;;;;;7.20;1.40;;;;;;;15.33;100.00;98890.75;5092481;28;20055;-52
2022/07/15 05:10:00;;;;;;;6.63;1.70;;;;;;;15.34;100.00;98905.34;5092716;28;20431;-54
2022/07/15 05:12:26;;;;;;;4.28;1.50;;;;;;;15.35;100.00;98904.94;5092164;28;20501;-53
2022/07/15 05:14:53;;;;;;;7.68;1.92;;;;;;;15.29;100.00;98912.06;5092731;28;20048;-51
2022/07/15 05:17:19;;;;;;;4.68;1.63;;;;;;;15.41;100.00;98864.66;5092541;28;20139;-53
2022/07/15 05:19:45;;;;;;;3.92;1.80;;;;;;;15.44;100.00;98838.97;5092216;28;20568;-54
2022/07/15 05:22:12;;;;;;;5.10;1.52;;;;;;;15.65;100.00;98868.41;5092155;28;20109;-52
2022/07/15 05:24:39;;;;;;;6.85;2.50;;;;;;;15.83;100.00;98842.66;5092468;28;20478;-53
2022/07/15 05:27:05;;;;;;;8.63;1.75;;;;;;;15.96;100.00;98775.41;5092160;28;20044;-52
2022/07/15 05:29:31;;;;;;;5.75;1.38;;;;;;;15.90;100.00;98696.09;5092132;28;20044;-54
2022/07/15 05:31:57;;;;;;;11.52;1.48;;;;;;;16.09;100.00;98639.38;5092337;28;20058;-53
2022/07/15 05:34:24;;;;;;;8.32;2.03;;;;;;;16.14;100.00;98667.38;5091958;28;20048;-54
2022/07/15 05:36:50;;;;;;;3.53;1.00;;;;;;;16.27;100.00;98633.63;5092371;28;20052;-52
2022/07/15 05:39:17;;;;;;;9.05;5.60;;;;;;;16.19;100.00;98583.16;5092093;28;20054;-52
2022/07/15 05:41:43;;;;;;;9.43;2.92;;;;;;;16.26;100.00;98549.88;5092071;28;20056;-52
2022/07/15 05:44:09;;;;;;;5.80;1.63;;;;;;;16.05;100.00;98562.00;5092092;28;20178;-52
2022/07/15 05:46:36;;;;;;;3.75;1.58;;;;;;;16.37;100.00;98533.13;5092011;28;20056;-52
2022/07/15 05:49:02;;;;;;;6.72;1.60;;;;;;;16.51;100.00;98494.16;5092030;28;20188;-52
2022/07/15 05:51:29;;;;;;;4.25;1.42;;;;;;;16.66;100.00;98465.03;5091991;28;20465;-52
2022/07/15 05:53:55;;;;;;;6.75;2.25;;;;;;;16.55;100.00;98447.03;5091559;28;20151;-53
2022/07/15 05:56:22;;;;;;;5.10;1.52;;;;;;;16.81;100.00;98415.75;5091721;28;20460;-53
2022/07/15 05:58:48;;;;;;;6.97;1.52;;;;;;;16.97;100.00;98390.13;5092041;28;20384;-53
2022/07/15 06:01:14;;;;;;;7.22;1.30;;;;;;;17.07;100.00;98250.69;5091597;28;20052;-55
2022/07/15 06:03:41;;;;;;;3.80;1.33;;;;;;;17.45;100.00;98250.16;5091592;28;20051;-55
2022/07/15 06:06:07;;;;;;;6.60;1.63;;;;;;;17.67;100.00;98136.78;5091565;28;20047;-55
2022/07/15 06:08:34;;;;;;;3.05;1.38;;;;;;;17.80;100.00;98062.03;5091720;28;20051;-53
2022/07/15 06:11:00;;;;;;;4.75;1.60;;;;;;;17.88;100.00;98058.59;5091334;28;20101;-56
2022/07/15 06:13:27;;;;;;;9.43;3.22;;;;;;;18.39;100.00;98019.00;5091388;28;20054;-52
2022/07/15 06:15:54;;;;;;;9.13;2.50;;;;;;;18.70;100.00;97879.63;5091547;28;20159;-54
2022/07/15 06:18:21;;;;;;;5.45;1.48;;;;;;;18.90;100.00;97762.72;5091021;28;20051;-55
2022/07/15 06:20:47;;;;;;;6.95;2.05;;;;;;;19.52;100.00;97682.78;5091551;28;20491;-55
2022/07/15 06:23:13;;;;;;;4.45;1.50;;;;;;;20.33;100.00;97629.66;5091277;28;20438;-52
2022/07/15 06:25:39;;;;;;;8.48;2.20;;;;;;;21.00;100.00;97562.88;5091655;28;20400;-56
2022/07/15 06:28:06;;;;;;;10.18;4.18;;;;;;;21.55;100.00;97568.03;5091153;28;20052;-56
2022/07/15 06:30:33;;;;;;;9.57;3.10;;;;;;;22.47;100.00;97617.41;5091165;28;20048;-53
2022/07/15 06:32:59;;;;;;;14.80;2.75;;;;;;;22.85;100.00;97654.81;5091099;28;20450;-55
2022/07/15 06:35:25;;;;;;;8.55;2.40;;;;;;;22.42;100.00;97688.63;5091294;28;20051;-55
2022/07/15 06:37:51;;;;;;;9.60;1.95;;;;;;;21.93;100.00;97666.91;5091002;28;20135;-53
2022/07/15 06:40:18;;;;;;;12.57;2.13;;;;;;;21.01;100.00;97631.25;5090652;28;20074;-56
2022/07/15 06:42:44;;;;;;;5.88;2.20;;;;;;;20.86;100.00;97600.56;5090986;28;20513;-54
2022/07/15 06:45:11;;;;;;;10.63;2.95;;;;;;;20.06;100.00;97588.75;5090834;28;20469;-55
2022/07/15 06:47:39;;;;;;;13.00;2.30;;;;;;;20.33;100.00;97592.69;5091088;28;20055;-54
2022/07/15 06:50:07;;;;;;;6.10;2.40;;;;;;;20.98;100.00;97588.41;5090716;28;20052;-52
2022/07/15 06:52:33;;;;;;;13.75;2.72;;;;;;;20.96;100.00;97587.31;5091088;28;20052;-54
2022/07/15 06:54:59;;;;;;;7.05;1.80;;;;;;;21.33;100.00;97597.00;5090747;28;20056;-54
2022/07/15 06:57:25;;;;;;;14.05;1.77;;;;;;;21.69;100.00;97625.09;5091159;28;20044;-55
2022/07/15 06:59:52;;;;;;;10.48;2.58;;;;;;;21.31;100.00;97627.34;5090537;28;20105;-56
2022/07/15 07:02:18;;;;;;;6.70;2.28;;;;;;;21.79;100.00;97613.41;5090794;28;20070;-55
2022/07/15 07:04:45;;;;;;;12.18;2.60;;;;;;;21.74;100.00;97610.50;5090035;28;20048;-54
2022/07/15 07:07:12;;;;;;;9.95;2.92;;;;;;;22.70;100.00;97650.03;5090647;28;20052;-56
2022/07/15 07:09:38;;;;;;;9.68;2.90;;;;;;;24.06;100.00;97739.38;5090502;28;20052;-58
2022/07/15 07:12:05;;;;;;;5.80;2.50;;;;;;;24.05;100.00;97757.44;5090281;28;20048;-56
2022/07/15 07:14:31;;;;;;;7.00;2.67;;;;;;;23.98;100.00;97786.63;5090516;28;20048;-55
2022/07/15 07:16:57;;;;;;;6.72;2.58;;;;;;;23.63;100.00;97753.84;5090352;28;20051;-56
2022/07/15 07:19:23;;;;;;;8.73;2.53;;;;;;;23.74;100.00;97788.84;5090475;28;20058;-54
2022/07/15 07:21:50;;;;;;;9.35;2.40;;;;;;;23.05;100.00;97782.69;5090282;28;20059;-56
2022/07/15 07:24:17;;;;;;;6.10;1.80;;;;;;;23.97;100.00;97837.50;5090736;28;20052;-54
2022/07/15 07:26:43;;;;;;;9.95;2.30;;;;;;;23.96;100.00;97822.75;5090387;28;20457;-56
2022/07/15 07:29:12;;;;;;;6.35;2.00;;;;;;;23.53;100.00;97746.06;5090757;28;20048;-54
2022/07/15 07:31:38;;;;;;;10.55;2.03;;;;;;;23.37;100.00;97769.72;5090242;28;20079;-56
2022/07/15 07:34:04;;;;;;;5.35;2.30;;;;;;;23.04;100.00;97814.69;5090409;28;20070;-53
2022/07/15 07:36:31;;;;;;;4.22;1.70;;;;;;;22.97;100.00;97771.13;5090277;28;20083;-57
2022/07/15 07:39:00;;;;;;;6.65;2.30;;;;;;;22.37;100.00;97792.63;5090134;28;20058;-56
2022/07/15 07:41:26;;;;;;;5.93;1.80;;;;;;;22.04;100.00;97740.44;5089914;28;20491;-55
2022/07/15 07:43:52;;;;;;;5.82;2.13;;;;;;;21.50;100.00;97694.19;5089929;28;20047;-53
2022/07/15 07:46:19;;;;;;;4.90;1.80;;;;;;;21.57;100.00;97669.50;5090122;28;20044;-56
2022/07/15 07:48:45;;;;;;;6.53;1.60;;;;;;;21.60;100.00;97670.56;5090281;28;20062;-56
2022/07/15 07:51:11;;;;;;;7.47;1.80;;;;;;;21.70;100.00;97688.00;5090416;28;20139;-56
2022/07/15 07:53:37;;;;;;;8.00;1.88;;;;;;;22.09;100.00;97674.81;5089786;28;20059;-56
2022/07/15 07:56:05;;;;;;;7.40;1.60;;;;;;;23.85;100.00;97739.38;5089700;28;20048;-56
2022/07/15 07:58:31;;;;;;;5.45;2.10;;;;;;;24.35;100.00;97850.47;5089754;28;20056;-55
2022/07/15 08:00:58;;;;;;;9.52;1.85;;;;;;;23.08;100.00;97921.47;5089885;28;20147;-56
2022/07/15 08:03:24;;;;;;;6.45;1.83;;;;;;;22.94;100.00;97833.56;5089555;28;20093;-53
2022/07/15 08:05:50;;;;;;;6.25;2.13;;;;;;;23.14;100.00;97822.47;5089578;28;20106;-52
2022/07/15 08:08:19;;;;;;;4.15;1.35;;;;;;;22.64;100.00;97835.53;5089762;28;20438;-54
2022/07/15 08:10:47;;;;;;;5.18;1.85;;;;;;;22.00;100.00;97775.34;5089737;28;20055;-56
2022/07/15 08:13:14;;;;;;;6.40;1.65;;;;;;;21.81;100.00;97713.34;5089799;28;20541;-55
2022/07/15 08:15:41;;;;;;;3.88;1.70;;;;;;;21.26;100.00;97696.91;5089995;28;20058;-52
2022/07/15 08:18:07;;;;;;;9.02;1.92;;;;;;;21.24;100.00;97646.47;5093540;28;20048;-55
2022/07/15 08:20:35;;;;;;;6.68;1.67;;;;;;;21.15;100.00;97647.28;5093220;28;20556;-55
2022/07/15 08:23:02;;;;;;;6.28;1.70;;;;;;;21.19;100.00;97686.88;5093465;28;20491;-57
2022/07/15 08:25:29;;;;;;;8.57;1.65;;;;;;;21.30;100.00;97709.44;5093148;28;20154;-53
2022/07/15 08:27:58;;;;;;;8.00;2.13;;;;;;;21.43;100.00;97692.53;5093040;28;20147;-53
2022/07/15 08:30:26;;;;;;;6.38;1.80;;;;;;;22.05;100.00;97660.28;5093338;28;20159;-56
2022/07/15 08:32:52;;;;;;;9.75;3.78;;;;;;;21.88;100.00;97685.06;5093059;28;20050;-56
2022/07/15 08:35:18;;;;;;;8.60;2.40;;;;;;;22.26;100.00;97731.75;5093416;28;20102;-55
2022/07/15 08:37:45;;;;;;;7.20;2.00;;;;;;;22.97;100.00;97743.19;5092931;28;20078;-56
2022/07/15 08:40:12;;;;;;;6.72;1.70;;;;;;;23.44;100.00;97822.47;5093283;28;20056;-56
2022/07/15 08:42:41;;;;;;;7.90;2.60;;;;;;;23.77;100.00;97849.44;5093118;28;20095;-54
2022/07/15 08:45:08;;;;;;;3.88;1.10;;;;;;;23.41;100.00;97862.56;5093245;28;20054;-57
2022/07/15 08:47:38;;;;;;;3.58;1.67;;;;;;;22.98;100.00;97853.72;5093007;28;20120;-57
2022/07/15 08:50:05;;;;;;;3.30;1.45;;;;;;;23.49;100.00;97875.69;5092959;28;20406;-57
2022/07/15 08:52:34;;;;;;;3.67;1.83;;;;;;;23.17;100.00;97857.09;5092673;28;20470;-55
2022/07/15 08:55:00;;;;;;;5.00;2.50;;;;;;;23.46;100.00;97871.06;5092757;28;20139;-57
2022/07/15 08:57:27;;;;;;;7.05;2.42;;;;;;;23.71;100.00;97802.53;5092588;28;20109;-56
2022/07/15 08:59:53;;;;;;;7.32;2.90;;;;;;;23.92;100.00;97814.53;5092629;28;20497;-54
2022/07/15 09:02:20;;;;;;;8.98;1.95;;;;;;;24.47;100.00;97890.63;5092584;28;20131;-54
2022/07/15 09:05:21;;;;;;;5.60;1.70;;;;;;;24.09;100.00;97867.97;5092499;28;20090;-57
2022/07/15 09:07:53;;;;;;;5.90;1.67;;;;;;;23.97;100.00;97910.28;5090847;28;20146;-56
2022/07/15 09:10:20;;;;;;;5.28;1.50;;;;;;;23.81;100.00;97987.88;5092568;28;20149;-56
2022/07/15 09:12:49;;;;;;;6.13;1.80;;;;;;;25.04;100.00;97960.09;5092859;28;20097;-57
2022/07/15 09:15:29;;;;;;;5.40;1.70;;;;;;;25.33;100.00;97973.97;5092378;28;20052;-57
2022/07/15 09:18:06;;;;;;;6.20;1.73;;;;;;;24.87;100.00;98013.94;5092346;28;20495;-57
2022/07/15 09:20:33;;;;;;;10.60;3.30;;;;;;;24.99;100.00;97969.19;5092400;28;20048;-57
2022/07/15 09:22:59;;;;;;;2.85;1.25;;;;;;;25.31;100.00;98021.38;5092164;28;20066;-53
2022/07/15 09:25:27;;;;;;;4.10;1.95;;;;;;;26.36;100.00;98050.19;5092322;28;20051;-57
2022/07/15 09:27:54;;;;;;;3.55;1.15;;;;;;;26.17;100.00;98074.31;5091752;28;20048;-55
2022/07/15 09:36:07;;;;;;;5.75;2.58;;;;;;;27.13;100.00;98082.16;5091988;28;20101;-57
2022/07/15 09:38:40;;;;;;;4.75;0.98;;;;;;;26.86;100.00;98122.13;5092374;28;20048;-57
2022/07/15 09:41:07;;;;;;;;;;;;;;;27.05;100.00;98089.50;5092856;28;20163;-57
2022/07/15 09:43:43;;;;;;;4.07;1.17;;;;;;;27.07;100.00;98143.22;5092412;28;20442;-57
2022/07/15 09:46:09;;;;;;;4.53;1.05;;;;;;;27.19;100.00;98108.28;5092216;28;20052;-56
2022/07/15 09:48:40;;;;;;;6.03;1.17;;;;;;;25.80;100.00;98070.13;5092188;28;20097;-57
2022/07/15 09:51:07;;;;;;;3.00;1.20;;;;;;;26.18;100.00;98085.03;5092042;28;20136;-56
2022/07/15 09:53:33;;;;;;;4.88;2.17;;;;;;;26.97;100.00;98057.50;5091828;28;20056;-57
2022/07/15 09:56:00;;;;;;;6.63;1.77;;;;;;;27.10;100.00;98063.44;5091796;28;20085;-56
2022/07/15 09:58:28;;;;;;;5.78;3.03;;;;;;;26.32;100.00;98051.69;5091688;28;20055;-57
2022/07/15 10:00:54;;;;;;;2.53;1.50;;;;;;;26.36;100.00;98016.50;5091540;28;20087;-57
2022/07/15 10:03:23;;;;;;;7.30;1.40;;;;;;;25.59;100.00;98004.03;5091687;28;20101;-57
2022/07/15 10:05:53;;;;;;;2.28;1.35;;;;;;;25.42;100.00;98040.34;5091500;28;20044;-56
2022/07/15 10:08:21;;;;;;;4.15;1.90;;;;;;;25.19;100.00;98013.31;5091660;28;20051;-56
2022/07/15 10:10:50;;;;;;;2.78;1.30;;;;;;;26.19;100.00;98058.50;5091508;28;20050;-56
2022/07/15 10:13:39;;;;;;;5.28;2.20;;;;;;;26.31;100.00;98027.69;5091580;28;20052;-58
2022/07/15 10:16:23;;;;;;;2.67;1.15;;;;;;;26.50;100.00;98085.84;5092115;28;20086;-57
2022/07/15 10:19:05;;;;;;;3.30;1.52;;;;;;;26.28;100.00;98072.34;5091346;28;20044;-57
2022/07/15 10:21:38;;;;;;;4.53;0.95;;;;;;;25.33;100.00;98082.59;5091489;28;20055;-57
2022/07/15 10:24:27;;;;;;;3.42;1.63;;;;;;;26.40;100.00;98061.22;5091577;28;20134;-56
2022/07/15 10:27:10;;;;;;;4.10;3.65;;;;;;;25.93;100.00;98063.38;5091230;28;20059;-57
2022/07/15 10:29:36;;;;;;;5.30;1.10;;;;;;;25.17;100.00;98035.47;5091399;28;20500;-57
2022/07/15 10:32:03;;;;;;;6.65;1.55;;;;;;;25.28;100.00;98035.59;5091080;28;20530;-56
2022/07/15 10:34:31;;;;;;;2.78;1.00;;;;;;;25.02;100.00;98019.47;5091065;28;20052;-56
2022/07/15 10:37:04;;;;;;;4.35;3.15;;;;;;;24.65;100.00;97963.19;5091254;28;20138;-55
2022/07/15 10:39:53;;;;;;;6.80;3.55;;;;;;;24.64;100.00;97972.88;5090144;28;20134;-57
2022/07/15 10:42:20;;;;;;;5.35;1.90;;;;;;;24.73;100.00;97969.16;5091302;28;20488;-56
2022/07/15 10:45:08;;;;;;;5.38;1.73;;;;;;;24.45;100.00;97982.78;5090924;28;20099;-56
2022/07/15 10:47:34;;;;;;;3.38;1.50;;;;;;;24.24;100.00;97951.16;5091056;28;20051;-54
2022/07/15 10:50:21;;;;;;;1.80;1.52;;;;;;;24.17;100.00;97938.31;5090797;28;20052;-56
2022/07/15 10:52:47;;;;;;;3.90;1.02;;;;;;;23.86;100.00;97914.47;5090696;28;20052;-56
2022/07/15 10:55:20;;;;;;;2.90;1.40;;;;;;;23.61;100.00;97929.03;5090883;28;20120;-56
2022/07/15 10:57:54;;;;;;;5.73;1.20;;;;;;;22.26;100.00;97915.25;5090851;28;20134;-56
2022/07/15 11:00:32;;;;;;;4.30;1.30;;;;;;;21.42;100.00;97724.41;5090707;28;20063;-55
2022/07/15 11:03:04;;;;;;;3.25;1.25;;;;;;;20.33;100.00;97599.03;5090803;28;20438;-54
2022/07/15 11:05:31;;;;;;;17.85;2.67;;;;;;;19.50;100.00;97642.81;5090394;28;20134;-56
2022/07/15 11:07:57;;;;;;;7.32;1.80;;;;;;;18.47;100.00;97939.88;5090606;28;20521;-53
2022/07/15 11:10:25;;;;;;;4.75;1.88;;;;;;;17.65;100.00;98302.72;5090768;28;20131;-54
2022/07/15 11:12:59;;;;;;;7.22;1.45;;;;;;;17.28;100.00;98641.97;5090466;28;20063;-54
2022/07/15 11:15:26;;;;;;;3.83;1.73;;;;;;;17.05;100.00;98793.06;5090224;28;20060;-56
2022/07/15 11:17:55;;;;;;;7.65;1.60;;;;;;;16.74;100.00;98885.63;5090569;28;20048;-52
2022/07/15 11:20:23;;;;;;;7.05;1.73;;;;;;;16.50;100.00;98910.38;5090403;28;20052;-53
2022/07/15 11:22:51;;;;;;;4.97;1.10;;;;;;;16.21;100.00;98959.66;5090584;28;20048;-54
2022/07/15 11:25:18;;;;;;;3.30;1.00;;;;;;;16.52;100.00;98990.22;5090414;28;20056;-53
2022/07/15 11:28:06;;;;;;;0.93;0.70;;;;;;;16.88;100.00;99001.75;5090322;28;20044;-53
2022/07/15 11:30:35;;;;;;;3.58;1.58;;;;;;;17.17;100.00;99027.19;5090200;28;20052;-55
2022/07/15 11:33:03;;;;;;;2.53;1.00;;;;;;;17.69;100.00;99032.47;5090143;28;20052;-52
2022/07/15 11:35:31;;;;;;;4.22;1.30;;;;;;;18.00;100.00;99030.50;5090212;28;20182;-53
2022/07/15 11:37:59;;;;;;;2.13;0.90;;;;;;;18.13;100.00;98983.56;5090253;28;20050;-52
2022/07/15 11:46:00;;;;;;;3.25;1.52;;;;;;;18.82;100.00;98992.31;5090334;28;20044;-54